Time;durP1;ratioP1;P1;durP2;ratioP2;P2;SDS_P1;SDS_P2;PMS_P1;PMS_P2;Temp;Humidity;BMP_temperature;BMP_pressure;BME280_temperature;BME280_humidity;BME280_pressure;Samples;Min_cycle;Max_cycle;Signal;HPM_P1;HPM_P2
2022/02/04 00:24:05;;;;;;;20.43;12.93;;;7.20;99.90;;;;;;2614186;54;21232;-76
2022/02/04 00:26:36;;;;;;;28.03;19.00;;;7.20;99.90;;;;;;2614704;54;20415;-76
2022/02/04 00:31:48;;;;;;;15.07;9.97;;;7.20;99.90;;;;;;2614951;54;20421;-76
2022/02/04 00:34:19;;;;;;;26.70;17.80;;;7.10;99.90;;;;;;2615342;39;20810;-76
2022/02/04 00:39:19;;;;;;;23.70;18.10;;;7.10;99.90;;;;;;2614655;54;20422;-76
2022/02/04 00:41:46;;;;;;;25.50;15.60;;;7.00;99.90;;;;;;2615366;54;20423;-76
2022/02/04 00:44:22;;;;;;;30.03;18.53;;;7.00;99.90;;;;;;2615616;54;20443;-77
2022/02/04 00:49:20;;;;;;;23.80;15.37;;;7.10;99.90;;;;;;2615140;54;20535;-76
2022/02/04 00:54:42;;;;;;;26.50;18.97;;;7.10;99.90;;;;;;2614818;54;20411;-76
2022/02/04 01:25:53;;;;;;;21.23;14.60;;;7.20;99.90;;;;;;2615543;54;20414;-76
2022/02/04 01:27:24;;;;;;;19.70;14.17;;;7.30;99.90;;;;;;2615384;47;20433;-77
2022/02/04 01:30:01;;;;;;;29.10;18.37;;;7.20;99.90;;;;;;2616372;54;20458;-76
2022/02/04 01:32:27;;;;;;;22.43;13.23;;;7.20;99.90;;;;;;2614549;39;20525;-77
2022/02/04 01:34:53;;;;;;;28.10;17.40;;;7.30;99.90;;;;;;2615021;54;20398;-77
2022/02/04 01:37:20;;;;;;;29.40;17.70;;;7.30;99.90;;;;;;2615588;47;20440;-76
2022/02/04 01:39:45;;;;;;;30.80;20.93;;;7.20;99.90;;;;;;2614880;47;20423;-77
2022/02/04 01:42:11;;;;;;;31.63;17.57;;;7.30;99.90;;;;;;2616288;54;20443;-77
2022/02/04 01:44:37;;;;;;;20.20;13.67;;;7.30;99.90;;;;;;2615356;54;20487;-77
2022/02/04 01:47:04;;;;;;;28.47;18.00;;;7.30;99.90;;;;;;2615487;54;20411;-76
2022/02/04 01:49:30;;;;;;;24.67;18.33;;;7.30;99.90;;;;;;2615230;54;20171;-76
2022/02/04 01:51:56;;;;;;;24.33;15.07;;;7.40;99.90;;;;;;2615887;47;20411;-76
2022/02/04 01:54:24;;;;;;;24.87;14.57;;;7.40;99.90;;;;;;2614431;47;20519;-77
2022/02/04 01:56:50;;;;;;;28.30;18.53;;;7.40;99.90;;;;;;2615032;54;21000;-77
2022/02/04 01:59:16;;;;;;;28.20;18.97;;;7.40;99.90;;;;;;2616140;54;20415;-76
2022/02/04 02:01:42;;;;;;;19.57;13.60;;;7.30;99.90;;;;;;2615571;54;20436;-76
2022/02/04 02:04:11;;;;;;;21.57;15.50;;;7.30;99.90;;;;;;2615522;31;20857;-76
2022/02/04 02:06:53;;;;;;;24.63;15.60;;;7.40;99.90;;;;;;2615159;47;20435;-77
2022/02/04 02:09:22;;;;;;;27.80;18.83;;;7.30;99.90;;;;;;2615511;47;20443;-76
2022/02/04 02:11:53;;;;;;;28.77;17.83;;;7.30;99.90;;;;;;2615707;54;20419;-77
2022/02/04 02:14:21;;;;;;;26.03;15.93;;;7.50;99.90;;;;;;2615175;54;20462;-76
2022/02/04 02:36:32;;;;;;;21.47;14.07;;;7.30;99.90;;;;;;2614326;54;21009;-77
2022/02/04 02:54:33;;;;;;;19.27;12.03;;;7.30;99.90;;;;;;2613998;54;20427;-77
2022/02/04 02:57:23;;;;;;;22.17;15.57;;;7.30;99.90;;;;;;2613621;54;20499;-76
2022/02/04 02:59:58;;;;;;;17.20;12.80;;;7.40;99.90;;;;;;2614890;54;20431;-77
2022/02/04 03:02:24;;;;;;;13.07;9.53;;;7.40;99.90;;;;;;2613841;54;20407;-76
2022/02/04 03:04:49;;;;;;;17.03;12.00;;;7.30;99.90;;;;;;2614915;54;20455;-77
2022/02/04 03:07:15;;;;;;;20.77;15.17;;;7.40;99.90;;;;;;2614259;54;21438;-76
2022/02/04 03:09:41;;;;;;;21.33;15.30;;;7.30;99.90;;;;;;2615074;39;20578;-77
2022/02/04 03:12:08;;;;;;;24.97;14.33;;;7.40;99.90;;;;;;2614800;47;20206;-76
2022/02/04 03:14:33;;;;;;;19.70;13.97;;;7.40;99.90;;;;;;2614544;47;20279;-77
2022/02/04 03:17:01;;;;;;;21.23;15.33;;;7.40;99.90;;;;;;2615390;54;20422;-76
2022/02/04 03:19:28;;;;;;;14.87;11.13;;;7.40;99.90;;;;;;2614824;46;20419;-77
2022/02/04 03:21:55;;;;;;;15.50;11.40;;;7.50;99.90;;;;;;2614896;54;20450;-77
2022/02/04 03:24:23;;;;;;;16.60;12.97;;;7.50;99.90;;;;;;2615732;39;20961;-76
2022/02/04 03:26:53;;;;;;;17.10;12.07;;;7.50;99.90;;;;;;2614582;54;22390;-76
2022/02/04 03:29:26;;;;;;;17.87;14.47;;;7.50;99.90;;;;;;2615065;54;20407;-77
2022/02/04 03:31:57;;;;;;;17.20;9.67;;;7.50;99.90;;;;;;2614829;54;20461;-76
2022/02/04 03:34:23;;;;;;;11.30;9.67;;;7.40;99.90;;;;;;2615470;54;20404;-76
2022/02/04 03:36:48;;;;;;;16.90;12.90;;;7.50;99.90;;;;;;2615048;54;20423;-77
2022/02/04 03:39:14;;;;;;;16.27;11.90;;;7.70;99.90;;;;;;2615572;54;20416;-76
2022/02/04 03:41:40;;;;;;;12.77;8.93;;;7.60;99.90;;;;;;2616395;54;20151;-76
2022/02/04 03:44:06;;;;;;;15.73;10.10;;;7.50;99.90;;;;;;2615411;54;20671;-77
2022/02/04 03:46:32;;;;;;;18.40;11.20;;;7.50;99.90;;;;;;2615282;39;20541;-77
2022/02/04 03:48:58;;;;;;;19.77;13.20;;;7.50;99.90;;;;;;2614956;47;20408;-76
2022/02/04 03:51:24;;;;;;;15.77;11.17;;;7.50;99.90;;;;;;2614951;54;20290;-77
2022/02/04 03:53:49;;;;;;;13.80;11.30;;;7.70;99.90;;;;;;2615775;39;20761;-77
2022/02/04 03:56:15;;;;;;;15.43;11.43;;;7.60;99.90;;;;;;2615043;47;20431;-77
2022/02/04 03:58:42;;;;;;;16.17;11.67;;;7.60;99.90;;;;;;2616320;39;20537;-77
2022/02/04 04:01:08;;;;;;;11.73;9.60;;;7.80;99.90;;;;;;2615286;54;20530;-76
2022/02/04 04:03:34;;;;;;;9.50;8.50;;;7.60;99.90;;;;;;2614872;47;20801;-76
2022/02/04 04:06:00;;;;;;;14.00;9.90;;;7.50;99.90;;;;;;2615785;54;21293;-76
2022/02/04 04:08:26;;;;;;;16.30;11.20;;;7.60;99.90;;;;;;2614908;54;20400;-76
2022/02/04 04:10:52;;;;;;;15.70;11.73;;;7.70;99.90;;;;;;2615471;50;20539;-76
2022/02/04 04:13:19;;;;;;;14.90;9.87;;;7.70;99.90;;;;;;2615103;54;20428;-76
2022/02/04 04:15:45;;;;;;;9.50;7.10;;;7.70;99.90;;;;;;2614840;39;21062;-76
2022/02/04 04:18:15;;;;;;;14.80;9.90;;;7.70;99.90;;;;;;2615470;54;20499;-76
2022/02/04 04:20:42;;;;;;;11.00;7.60;;;7.70;99.90;;;;;;2615030;54;20409;-76
2022/02/04 04:23:09;;;;;;;11.10;8.80;;;7.70;99.90;;;;;;2614783;54;20960;-77
2022/02/04 04:25:35;;;;;;;11.73;8.90;;;7.50;99.90;;;;;;2615285;54;20458;-76
2022/02/04 04:28:02;;;;;;;12.27;10.80;;;7.50;99.90;;;;;;2615066;54;20411;-76
2022/02/04 04:30:33;;;;;;;14.37;9.73;;;7.60;99.90;;;;;;2615296;47;20412;-76
2022/02/04 04:32:59;;;;;;;12.00;9.43;;;7.70;99.90;;;;;;2614455;54;20403;-76
2022/02/04 04:35:27;;;;;;;13.57;9.63;;;7.70;99.90;;;;;;2615978;54;20433;-76
2022/02/04 04:40:39;;;;;;;14.30;10.13;;;7.70;99.90;;;;;;2615984;54;20433;-76
2022/02/04 05:29:40;;;;;;;9.07;7.07;;;7.70;99.90;;;;;;2616305;54;20419;-76
2022/02/04 05:32:06;;;;;;;9.67;7.70;;;7.70;99.90;;;;;;2615744;54;20460;-76
2022/02/04 05:34:34;;;;;;;10.10;8.77;;;7.70;99.90;;;;;;2615222;47;20431;-75
2022/02/04 05:37:06;;;;;;;9.20;7.43;;;7.70;99.90;;;;;;2615848;54;20416;-76
2022/02/04 05:40:10;;;;;;;8.50;7.00;;;7.80;99.90;;;;;;2615325;54;20439;-76
2022/02/04 05:42:29;;;;;;;9.00;5.70;;;7.80;99.90;;;;;;2615663;39;20845;-77
2022/02/04 05:45:00;;;;;;;9.23;7.90;;;7.80;99.90;;;;;;2615215;54;20419;-77
2022/02/04 05:47:28;;;;;;;7.53;5.83;;;7.80;99.90;;;;;;2615749;47;20438;-76
2022/02/04 05:52:47;;;;;;;6.20;5.33;;;7.80;99.90;;;;;;2615734;47;21344;-77
2022/02/04 06:00:37;;;;;;;7.63;6.37;;;7.70;99.90;;;;;;2615151;47;20546;-75
2022/02/04 06:24:06;;;;;;;5.97;5.33;;;7.90;99.90;;;;;;2613814;54;20395;-76
2022/02/04 06:26:32;;;;;;;8.70;5.53;;;7.90;99.90;;;;;;2613881;46;20439;-76
2022/02/04 06:28:58;;;;;;;4.80;4.27;;;7.90;99.90;;;;;;2613959;54;20406;-76
2022/02/04 06:31:25;;;;;;;5.30;4.60;;;7.90;99.90;;;;;;2614415;47;21029;-75
2022/02/04 06:33:51;;;;;;;6.83;4.97;;;7.90;99.90;;;;;;2614610;54;20510;-75
2022/02/04 06:36:17;;;;;;;8.97;6.37;;;7.90;99.90;;;;;;2614638;47;20456;-76
2022/02/04 06:38:44;;;;;;;6.60;5.80;;;7.90;99.90;;;;;;2614488;51;20407;-76
2022/02/04 06:41:10;;;;;;;8.17;4.57;;;7.80;99.90;;;;;;2614448;54;20419;-77
2022/02/04 06:43:36;;;;;;;6.90;5.30;;;7.90;99.90;;;;;;2614190;47;20447;-76
2022/02/04 06:46:03;;;;;;;9.50;6.47;;;7.90;99.90;;;;;;2615359;54;20427;-76
2022/02/04 06:48:28;;;;;;;4.43;4.00;;;8.00;99.90;;;;;;2614364;47;20432;-76
2022/02/04 06:50:55;;;;;;;6.57;5.63;;;8.00;99.90;;;;;;2614839;51;20437;-76
2022/02/04 06:53:21;;;;;;;6.60;5.57;;;8.00;99.90;;;;;;2614952;54;20434;-75
2022/02/04 06:55:47;;;;;;;7.00;4.03;;;8.10;99.90;;;;;;2615705;54;20412;-76
2022/02/04 06:58:13;;;;;;;7.03;5.30;;;8.00;99.90;;;;;;2615036;47;20155;-75
2022/02/04 07:00:40;;;;;;;4.40;3.63;;;7.90;99.90;;;;;;2614781;54;20434;-76
2022/02/04 07:03:06;;;;;;;4.97;4.07;;;8.00;99.90;;;;;;2615513;54;20383;-76
2022/02/04 07:05:41;;;;;;;6.10;5.50;;;8.00;99.90;;;;;;2614498;47;20445;-76
2022/02/04 07:08:23;;;;;;;7.90;5.00;;;8.00;99.90;;;;;;2614974;52;20450;-76
2022/02/04 07:13:38;;;;;;;4.70;3.77;;;8.10;99.90;;;;;;2615298;54;20450;-75
2022/02/04 07:16:33;;;;;;;6.60;4.80;;;8.10;99.90;;;;;;2615478;54;20162;-76
2022/02/04 07:21:29;;;;;;;7.03;5.00;;;8.10;99.90;;;;;;2615556;54;20403;-76
2022/02/04 07:23:56;;;;;;;6.47;3.60;;;8.10;99.90;;;;;;2614030;54;20415;-77
2022/02/04 07:26:22;;;;;;;6.33;5.03;;;8.10;99.90;;;;;;2614539;54;20455;-76
2022/02/04 07:28:48;;;;;;;5.60;4.53;;;8.10;99.90;;;;;;2614925;46;20447;-76
2022/02/04 07:31:15;;;;;;;4.00;3.70;;;8.10;99.90;;;;;;2615189;54;21271;-76
2022/02/04 07:33:45;;;;;;;4.67;4.17;;;8.00;99.90;;;;;;2614967;47;20224;-76
2022/02/04 07:40:53;;;;;;;6.00;5.00;;;8.10;99.90;;;;;;2615745;54;20958;-76
2022/02/04 07:41:37;;;;;;;8.77;4.60;;;8.20;99.90;;;;;;2615365;54;20427;-76
2022/02/04 07:44:03;;;;;;;4.63;4.23;;;8.20;99.90;;;;;;2613870;47;20426;-76
2022/02/04 07:46:30;;;;;;;6.90;4.50;;;8.10;99.90;;;;;;2614894;54;20531;-76
2022/02/04 07:48:57;;;;;;;4.90;4.27;;;8.20;99.90;;;;;;2614418;47;20463;-76
2022/02/04 07:51:23;;;;;;;4.90;4.10;;;8.20;99.90;;;;;;2615098;47;20523;-76
2022/02/04 07:53:48;;;;;;;5.30;3.30;;;8.20;99.90;;;;;;2614789;54;20430;-77
2022/02/04 07:56:20;;;;;;;5.27;4.73;;;8.20;99.90;;;;;;2615137;54;21027;-76
2022/02/04 07:58:55;;;;;;;4.57;4.00;;;8.20;99.90;;;;;;2614041;54;20209;-75
2022/02/04 08:01:27;;;;;;;5.27;3.47;;;8.30;99.90;;;;;;2614767;54;20430;-76
2022/02/04 08:04:15;;;;;;;3.70;3.27;;;8.20;99.90;;;;;;2614907;54;20423;-76
2022/02/04 08:06:47;;;;;;;4.63;3.70;;;8.20;99.90;;;;;;2615004;54;20507;-77
2022/02/04 08:27:52;;;;;;;3.67;3.37;;;8.20;99.90;;;;;;2616193;54;20403;-77
2022/02/04 08:56:42;;;;;;;4.17;3.77;;;8.20;99.90;;;;;;2615423;47;20181;-77
2022/02/04 08:59:15;;;;;;;4.60;3.77;;;8.30;99.90;;;;;;2615585;54;20423;-76
2022/02/04 09:01:49;;;;;;;3.23;2.90;;;8.30;99.90;;;;;;2615303;47;20980;-76
2022/02/04 09:04:19;;;;;;;4.07;3.67;;;8.30;99.90;;;;;;2615760;39;20790;-77
2022/02/04 09:06:51;;;;;;;4.20;3.67;;;8.30;99.90;;;;;;2615735;54;20447;-76
2022/02/04 09:09:48;;;;;;;5.30;4.30;;;8.10;99.90;;;;;;2615997;54;20419;-76
2022/02/04 09:20:23;;;;;;;7.80;4.40;;;8.10;99.90;;;;;;2615236;39;20825;-77
2022/02/04 09:22:50;;;;;;;6.20;4.90;;;8.10;99.90;;;;;;2616113;54;20495;-77
2022/02/04 09:25:16;;;;;;;7.80;4.80;;;8.00;99.90;;;;;;2615163;47;20511;-77
2022/02/04 09:27:44;;;;;;;6.50;5.47;;;8.00;99.90;;;;;;2614987;54;20467;-77
2022/02/04 09:30:12;;;;;;;6.70;4.60;;;7.90;99.90;;;;;;2615286;54;20443;-77
2022/02/04 09:32:39;;;;;;;5.20;3.57;;;8.10;99.90;;;;;;2615503;54;20443;-78
2022/02/04 09:35:11;;;;;;;8.20;4.90;;;8.10;99.90;;;;;;2615274;54;20441;-77
2022/02/04 09:37:39;;;;;;;5.13;4.63;;;8.10;99.90;;;;;;2616057;54;20430;-76
2022/02/04 09:40:06;;;;;;;6.17;5.33;;;8.10;99.90;;;;;;2616231;46;20925;-76
2022/02/04 09:42:32;;;;;;;6.87;4.30;;;7.90;99.90;;;;;;2614613;47;20572;-76
2022/02/04 09:44:59;;;;;;;7.13;5.83;;;8.00;99.90;;;;;;2615564;54;20392;-77
2022/02/04 09:47:34;;;;;;;4.43;4.03;;;8.00;99.90;;;;;;2615345;54;21283;-77
2022/02/04 09:50:08;;;;;;;7.23;6.20;;;7.90;99.90;;;;;;2615771;54;20418;-77
2022/02/04 10:09:57;;;;;;;5.10;4.50;;;8.20;99.90;;;;;;2615771;54;20487;-77
2022/02/04 10:18:02;;;;;;;4.87;4.37;;;8.20;99.90;;;;;;2615126;47;20435;-76
2022/02/04 10:20:28;;;;;;;5.40;4.80;;;8.10;99.90;;;;;;2615831;47;20482;-76
2022/02/04 10:22:54;;;;;;;6.20;4.93;;;8.10;99.90;;;;;;2615724;54;20416;-77
2022/02/04 10:25:20;;;;;;;7.13;5.90;;;8.30;99.90;;;;;;2615242;39;20810;-76
2022/02/04 10:27:46;;;;;;;6.90;5.13;;;8.50;99.90;;;;;;2614691;54;20407;-77
2022/02/04 10:30:14;;;;;;;8.83;5.60;;;8.40;99.90;;;;;;2615625;54;20967;-77
2022/02/04 10:32:48;;;;;;;5.30;4.80;;;8.50;99.90;;;;;;2615193;54;20404;-77
2022/02/04 10:35:29;;;;;;;6.40;4.80;;;8.50;99.90;;;;;;2615312;54;20431;-76
2022/02/04 10:38:21;;;;;;;10.90;4.80;;;8.70;99.90;;;;;;2614984;47;20471;-78
2022/02/04 10:41:17;;;;;;;6.07;4.50;;;8.70;99.90;;;;;;2615358;54;20419;-77
2022/02/04 10:46:59;;;;;;;4.43;4.03;;;8.80;99.90;;;;;;2614463;54;20439;-77
2022/02/04 10:49:50;;;;;;;4.80;4.33;;;8.70;99.90;;;;;;2613470;54;20422;-77
2022/02/04 10:52:41;;;;;;;4.20;3.10;;;8.90;99.90;;;;;;2614176;54;20415;-77
2022/02/04 11:00:39;;;;;;;3.87;3.50;;;9.00;99.90;;;;;;2614232;47;20476;-78
2022/02/04 11:03:10;;;;;;;5.80;4.33;;;8.60;99.90;;;;;;2614555;54;20415;-77
2022/02/04 11:11:20;;;;;;;2.30;2.10;;;8.50;99.90;;;;;;2613546;54;20447;-76
2022/02/04 11:30:57;;;;;;;2.40;2.20;;;8.80;99.90;;;;;;2616682;39;20818;-77
2022/02/04 11:31:03;;;;;;;3.03;2.60;;;9.00;99.90;;;;;;2614449;54;20955;-76
2022/02/04 11:36:13;;;;;;;3.50;3.23;;;9.00;99.90;;;;;;2614765;54;20412;-77
2022/02/04 11:55:00;;;;;;;3.97;2.83;;;8.70;99.90;;;;;;2615245;54;20447;-77
2022/02/04 11:57:34;;;;;;;4.10;3.27;;;8.80;99.90;;;;;;2614793;39;20895;-76
2022/02/04 12:00:15;;;;;;;2.17;2.00;;;8.80;99.90;;;;;;2614309;54;20419;-80
2022/02/04 12:02:51;;;;;;;1.83;1.73;;;9.00;99.90;;;;;;2615413;54;20426;-78
2022/02/04 12:05:16;;;;;;;2.03;1.93;;;9.00;99.90;;;;;;2615049;47;20460;-77
2022/02/04 12:07:48;;;;;;;1.80;1.70;;;9.00;99.90;;;;;;2614311;54;20948;-77
2022/02/04 12:10:13;;;;;;;1.87;1.77;;;8.80;99.90;;;;;;2615575;54;20143;-77
2022/02/04 12:12:55;;;;;;;0.97;0.97;;;8.70;99.90;;;;;;2615544;54;20583;-77
2022/02/04 12:15:32;;;;;;;2.33;1.80;;;8.70;99.90;;;;;;2614948;39;20566;-77
2022/02/04 12:18:07;;;;;;;1.53;1.43;;;8.70;99.90;;;;;;2615534;39;20806;-77
2022/02/04 12:20:45;;;;;;;2.80;2.10;;;8.80;99.90;;;;;;2614839;47;20399;-78
2022/02/04 12:23:30;;;;;;;1.07;1.07;;;8.90;99.90;;;;;;2615233;39;20792;-76
2022/02/04 12:26:31;;;;;;;1.53;1.23;;;8.90;99.90;;;;;;2615501;31;20853;-76
2022/02/04 12:29:05;;;;;;;1.30;1.20;;;8.90;99.90;;;;;;2614228;54;20419;-77
2022/02/04 12:31:38;;;;;;;2.80;1.10;;;8.90;99.90;;;;;;2614491;47;20439;-77
2022/02/04 12:34:12;;;;;;;1.63;1.53;;;9.00;99.90;;;;;;2614543;54;20420;-77
2022/02/04 12:36:39;;;;;;;2.17;2.00;;;8.90;99.90;;;;;;2615030;50;20422;-77
2022/02/04 12:39:07;;;;;;;1.47;1.40;;;8.90;99.90;;;;;;2614731;54;20428;-77
2022/02/04 12:41:34;;;;;;;1.77;1.60;;;9.00;99.90;;;;;;2615209;54;20394;-77
2022/02/04 12:44:09;;;;;;;2.00;1.80;;;9.00;99.90;;;;;;2615475;54;20402;-77
2022/02/04 12:46:38;;;;;;;1.90;1.77;;;8.90;99.90;;;;;;2615036;54;20414;-77
2022/02/04 12:49:13;;;;;;;2.33;2.13;;;8.90;99.90;;;;;;2614357;54;20434;-77
2022/02/04 12:52:02;;;;;;;2.03;1.93;;;8.90;99.90;;;;;;2614889;51;20468;-77
2022/02/04 12:54:35;;;;;;;2.30;2.10;;;8.60;99.90;;;;;;2614151;54;20451;-78
2022/02/04 12:59:55;;;;;;;2.63;2.03;;;8.30;99.90;;;;;;2614045;54;20419;-77
2022/02/04 13:10:08;;;;;;;3.17;2.70;;;8.50;99.90;;;;;;2615659;47;20403;-77
2022/02/04 13:12:54;;;;;;;2.40;2.20;;;8.60;99.90;;;;;;2616671;54;20618;-77
2022/02/04 13:15:21;;;;;;;2.93;2.37;;;8.60;99.90;;;;;;2615333;54;20462;-77
2022/02/04 13:17:47;;;;;;;1.90;1.80;;;8.70;99.90;;;;;;2616404;31;20858;-77
2022/02/04 13:20:16;;;;;;;2.90;2.70;;;8.80;99.90;;;;;;2615531;54;20418;-77
2022/02/04 13:22:43;;;;;;;3.33;3.03;;;8.80;99.90;;;;;;2615283;47;20205;-77
2022/02/04 13:25:20;;;;;;;2.93;2.53;;;8.90;99.90;;;;;;2615206;39;20813;-77
2022/02/04 13:28:04;;;;;;;3.00;2.77;;;8.90;99.90;;;;;;2615362;54;20931;-77
2022/02/04 13:30:33;;;;;;;2.90;2.57;;;8.90;99.90;;;;;;2616916;39;20895;-77
2022/02/04 13:33:00;;;;;;;5.17;3.37;;;8.90;99.90;;;;;;2615110;54;20503;-78
2022/02/04 13:35:35;;;;;;;3.07;2.73;;;8.90;99.90;;;;;;2615699;54;20420;-77
2022/02/04 13:38:08;;;;;;;3.83;3.53;;;8.90;99.90;;;;;;2614997;47;20435;-79
2022/02/04 13:40:49;;;;;;;3.80;3.40;;;9.00;99.90;;;;;;2615625;54;20416;-79
2022/02/04 13:43:32;;;;;;;2.93;2.63;;;9.10;99.90;;;;;;2616004;54;20419;-79
2022/02/04 13:46:09;;;;;;;3.30;3.00;;;9.20;99.90;;;;;;2615046;54;20416;-80
2022/02/04 13:48:57;;;;;;;2.77;2.57;;;9.50;99.90;;;;;;2614874;47;20439;-79
2022/02/04 13:51:48;;;;;;;3.17;2.90;;;9.50;99.90;;;;;;2616322;54;20396;-79
2022/02/04 13:57:42;;;;;;;2.73;2.40;;;9.50;99.90;;;;;;2613732;47;20514;-80
2022/02/04 14:00:25;;;;;;;3.13;2.83;;;9.40;99.90;;;;;;2615191;47;20415;-80
2022/02/04 14:03:13;;;;;;;3.63;2.90;;;9.40;99.90;;;;;;2614083;47;20424;-80
2022/02/04 14:05:47;;;;;;;5.00;3.67;;;9.50;99.90;;;;;;2613638;54;21023;-79
2022/02/04 14:08:17;;;;;;;2.40;2.20;;;9.40;99.90;;;;;;2615433;54;20416;-80
2022/02/04 14:10:57;;;;;;;2.67;2.47;;;9.80;99.90;;;;;;2615912;47;20428;-79
2022/02/04 14:13:24;;;;;;;3.77;3.37;;;9.60;99.90;;;;;;2617689;54;20438;-79
2022/02/04 14:15:59;;;;;;;2.50;2.30;;;9.90;99.90;;;;;;2616773;46;20434;-80
2022/02/04 14:18:27;;;;;;;3.83;3.17;;;9.60;99.90;;;;;;2615687;47;20423;-80
2022/02/04 14:20:53;;;;;;;3.63;2.97;;;9.40;99.90;;;;;;2614007;54;20412;-81
2022/02/04 14:23:20;;;;;;;2.90;2.43;;;9.40;99.90;;;;;;2615446;39;20934;-79
2022/02/04 14:25:54;;;;;;;2.53;2.33;;;9.40;99.90;;;;;;2614595;54;20415;-80
2022/02/04 14:28:25;;;;;;;4.60;3.17;;;9.30;99.90;;;;;;2615442;54;20426;-78
2022/02/04 14:30:59;;;;;;;3.20;2.77;;;9.30;99.90;;;;;;2615095;47;20419;-80
2022/02/04 14:34:37;;;;;;;2.77;2.57;;;9.40;99.90;;;;;;2615325;54;20410;-79
2022/02/04 14:36:38;;;;;;;3.80;3.50;;;9.30;99.90;;;;;;2615022;54;20415;-80
2022/02/04 15:00:56;;;;;;;5.93;2.93;;;8.80;99.90;;;;;;2617348;54;20952;-79
2022/02/04 15:03:29;;;;;;;4.80;3.00;;;8.70;99.90;;;;;;2615797;51;20427;-78
2022/02/04 15:06:04;;;;;;;3.30;3.00;;;8.40;99.90;;;;;;2614844;54;20463;-80
2022/02/04 15:08:33;;;;;;;3.50;2.90;;;8.30;99.90;;;;;;2618537;54;20962;-82
2022/02/04 15:11:02;;;;;;;3.77;3.40;;;8.10;99.90;;;;;;2617607;54;20427;-82
2022/02/04 15:13:30;;;;;;;2.90;2.60;;;8.00;99.90;;;;;;2616480;51;20420;-83
2022/02/04 15:15:56;;;;;;;8.33;3.57;;;8.00;99.90;;;;;;2616779;54;20636;-81
2022/02/04 15:18:22;;;;;;;3.10;2.90;;;7.90;99.90;;;;;;2618401;54;20967;-82
2022/02/04 15:20:48;;;;;;;5.70;3.27;;;7.90;99.90;;;;;;2618040;47;20428;-83
2022/02/04 15:23:16;;;;;;;3.87;2.50;;;7.90;99.90;;;;;;2618473;54;20415;-77
2022/02/04 15:25:42;;;;;;;2.90;2.43;;;7.90;99.90;;;;;;2616277;54;20419;-81
2022/02/04 15:28:35;;;;;;;3.83;2.83;;;7.90;99.90;;;;;;2617137;54;20499;-82
2022/02/04 15:31:02;;;;;;;3.23;2.93;;;7.90;99.90;;;;;;2615558;39;20821;-80
2022/02/04 15:33:33;;;;;;;3.40;2.57;;;8.00;99.90;;;;;;2614185;47;20422;-82
2022/02/04 15:36:00;;;;;;;3.20;2.57;;;7.90;99.90;;;;;;2615465;54;20946;-83
2022/02/04 15:38:26;;;;;;;4.03;2.53;;;7.90;99.90;;;;;;2614861;54;20406;-83
2022/02/04 15:40:52;;;;;;;4.60;2.57;;;7.80;99.90;;;;;;2615271;54;20478;-80
2022/02/04 15:43:18;;;;;;;2.70;2.23;;;7.90;99.90;;;;;;2615455;54;20936;-83
2022/02/04 15:48:37;;;;;;;5.53;3.13;;;7.80;99.90;;;;;;2615503;54;21007;-83
2022/02/04 15:51:42;;;;;;;7.90;4.20;;;7.80;99.90;;;;;;2615764;54;20579;-79
2022/02/04 15:54:01;;;;;;;5.63;2.30;;;7.80;99.90;;;;;;2615234;54;20443;-81
2022/02/04 15:56:43;;;;;;;3.60;3.07;;;7.80;99.90;;;;;;2615355;54;20486;-84
2022/02/04 16:04:21;;;;;;;4.17;3.00;;;7.80;99.90;;;;;;2614759;54;20420;-83
2022/02/04 16:06:48;;;;;;;3.73;2.97;;;7.80;99.90;;;;;;2615760;54;20431;-84
2022/02/04 16:09:16;;;;;;;6.10;3.20;;;;;;;;;;2616174;47;20423;-79
2022/02/04 16:16:52;;;;;;;4.20;2.73;;;7.80;99.90;;;;;;2616485;39;21250;-78
2022/02/04 16:29:47;;;;;;;3.87;3.47;;;7.80;99.90;;;;;;2615488;54;20507;-84
2022/02/04 16:32:13;;;;;;;3.40;3.10;;;7.80;99.90;;;;;;2615722;54;20547;-84
2022/02/04 16:34:42;;;;;;;2.37;2.17;;;7.90;99.90;;;;;;2614895;47;20254;-81
2022/02/04 16:37:16;;;;;;;4.83;4.10;;;7.80;99.90;;;;;;2615688;47;20467;-83
2022/02/04 16:39:43;;;;;;;4.33;3.00;;;7.80;99.90;;;;;;2615599;47;21299;-83
2022/02/04 16:42:14;;;;;;;2.03;1.93;;;7.80;99.90;;;;;;2616802;39;20803;-83
2022/02/04 16:44:42;;;;;;;3.80;3.50;;;7.80;99.90;;;;;;2613551;54;20423;-82
2022/02/04 16:47:08;;;;;;;6.80;3.80;;;7.70;99.90;;;;;;2615802;54;20399;-83
2022/02/04 16:49:37;;;;;;;4.40;3.37;;;7.60;99.90;;;;;;2615601;54;20497;-80
2022/02/04 16:52:05;;;;;;;3.60;2.23;;;7.50;99.90;;;;;;2615586;54;20428;-82
2022/02/04 16:54:33;;;;;;;2.10;1.90;;;6.50;99.90;;;;;;2615498;54;20411;-81
2022/02/04 16:57:00;;;;;;;1.57;1.47;;;6.00;99.90;;;;;;2615285;47;20434;-84
2022/02/04 16:59:27;;;;;;;5.53;2.20;;;5.70;99.90;;;;;;2614853;54;20403;-83
2022/02/04 17:01:57;;;;;;;2.10;1.93;;;5.50;99.90;;;;;;2615405;39;20929;-81
2022/02/04 17:04:23;;;;;;;2.00;1.90;;;5.30;99.90;;;;;;2616083;54;20407;-82
2022/02/04 17:06:58;;;;;;;2.23;2.03;;;5.10;99.90;;;;;;2615828;54;20411;-83
2022/02/04 17:09:29;;;;;;;2.93;2.43;;;5.00;99.90;;;;;;2616296;54;20394;-84
2022/02/04 17:12:07;;;;;;;2.03;1.93;;;5.00;99.90;;;;;;2615645;49;20455;-85
2022/02/04 17:14:35;;;;;;;3.30;3.00;;;5.00;99.90;;;;;;2615545;47;20410;-82
2022/02/04 17:17:02;;;;;;;2.80;2.60;;;4.90;99.90;;;;;;2614927;54;20415;-84
2022/02/04 17:19:34;;;;;;;2.53;2.33;;;4.90;99.90;;;;;;2615920;47;20526;-85
2022/02/04 17:22:04;;;;;;;3.30;3.00;;;4.80;99.90;;;;;;2615651;54;20416;-83
2022/02/04 17:24:31;;;;;;;3.93;3.27;;;4.90;99.90;;;;;;2616150;54;20395;-84
2022/02/04 17:26:58;;;;;;;4.10;3.70;;;4.90;99.90;;;;;;2615607;54;20423;-84
2022/02/04 17:29:27;;;;;;;3.33;3.03;;;4.90;99.90;;;;;;2616751;39;20796;-84
2022/02/04 17:31:54;;;;;;;3.80;3.27;;;4.90;99.90;;;;;;2616323;54;20420;-79
2022/02/04 17:34:20;;;;;;;4.20;3.80;;;4.80;99.90;;;;;;2614354;54;20415;-82
2022/02/04 17:36:46;;;;;;;4.80;4.40;;;4.80;99.90;;;;;;2615218;47;20419;-81
2022/02/04 17:39:19;;;;;;;5.27;4.70;;;4.80;99.90;;;;;;2616714;54;20450;-79
2022/02/04 17:41:47;;;;;;;6.50;4.47;;;4.80;99.90;;;;;;2617188;54;20154;-81
2022/02/04 17:44:15;;;;;;;4.57;3.80;;;4.90;99.90;;;;;;2616384;54;20502;-83
2022/02/04 17:46:42;;;;;;;3.70;3.40;;;4.80;99.90;;;;;;2616837;46;20437;-79
2022/02/04 17:49:19;;;;;;;4.03;3.67;;;4.80;99.90;;;;;;2617787;54;20410;-84
2022/02/04 17:54:15;;;;;;;2.80;2.57;;;4.90;99.90;;;;;;2616336;54;20427;-82
2022/02/04 18:07:16;;;;;;;4.43;4.03;;;4.90;99.90;;;;;;2615423;47;20430;-80
2022/02/04 18:09:45;;;;;;;2.77;2.57;;;4.90;99.90;;;;;;2617328;54;20424;-81
2022/02/04 18:12:13;;;;;;;4.53;3.77;;;4.90;99.90;;;;;;2616444;47;20471;-80
2022/02/04 18:14:39;;;;;;;5.10;4.60;;;4.90;99.90;;;;;;2616077;54;20451;-86
2022/02/04 18:17:06;;;;;;;5.93;4.23;;;4.90;99.90;;;;;;2616305;54;20432;-84
2022/02/04 18:19:33;;;;;;;5.30;4.80;;;4.90;99.90;;;;;;2616150;47;20423;-83
2022/02/04 18:21:59;;;;;;;5.03;4.53;;;4.90;99.90;;;;;;2616262;54;20420;-84
2022/02/04 18:24:25;;;;;;;4.40;4.00;;;4.90;99.90;;;;;;2616071;54;20406;-77
2022/02/04 18:26:52;;;;;;;6.60;5.30;;;4.90;99.90;;;;;;2616024;54;20416;-82
2022/02/04 18:29:18;;;;;;;5.87;4.90;;;4.90;99.90;;;;;;2615908;54;20415;-79
2022/02/04 18:31:45;;;;;;;6.23;4.60;;;5.00;99.90;;;;;;2615996;47;20423;-78
2022/02/04 18:34:14;;;;;;;5.80;5.20;;;4.90;99.90;;;;;;2615919;54;20493;-81
2022/02/04 18:36:41;;;;;;;5.90;5.40;;;4.90;99.90;;;;;;2616824;47;20415;-79
2022/02/04 18:39:23;;;;;;;5.70;5.20;;;4.80;99.90;;;;;;2616373;54;20388;-82
2022/02/04 18:44:21;;;;;;;4.40;4.00;;;4.70;99.90;;;;;;2616335;47;20398;-80
2022/02/04 18:46:57;;;;;;;6.40;5.40;;;4.70;99.90;;;;;;2616460;47;20403;-82
2022/02/04 18:49:40;;;;;;;4.60;4.30;;;4.60;99.90;;;;;;2616909;54;20402;-86
2022/02/04 18:54:46;;;;;;;4.53;4.07;;;4.50;99.90;;;;;;2617635;54;20423;-83
2022/02/04 18:57:20;;;;;;;6.67;5.97;;;4.50;99.90;;;;;;2617364;54;20407;-83
2022/02/04 19:00:03;;;;;;;5.60;4.43;;;4.50;99.90;;;;;;2616151;47;20506;-82
2022/02/04 19:02:30;;;;;;;3.90;2.97;;;4.50;99.90;;;;;;2616548;54;20404;-82
2022/02/04 19:07:36;;;;;;;4.33;3.47;;;4.50;99.90;;;;;;2616520;47;20439;-80
2022/02/04 19:10:03;;;;;;;5.43;4.93;;;4.50;99.90;;;;;;2615068;47;20465;-82
2022/02/04 19:12:44;;;;;;;9.40;4.67;;;4.50;99.90;;;;;;2617230;54;20436;-82
2022/02/04 19:15:41;;;;;;;3.40;3.03;;;4.50;99.90;;;;;;2616549;47;20406;-82
2022/02/04 19:18:14;;;;;;;3.97;3.47;;;4.50;99.90;;;;;;2616788;54;21892;-82
2022/02/04 19:20:44;;;;;;;8.40;5.40;;;4.50;99.90;;;;;;2617168;47;20430;-84
2022/02/04 19:23:22;;;;;;;10.77;5.60;;;4.60;99.90;;;;;;2617814;54;20391;-82
2022/02/04 19:25:48;;;;;;;4.57;3.73;;;4.60;99.90;;;;;;2616370;54;20411;-84
2022/02/04 19:28:14;;;;;;;8.03;5.17;;;4.60;99.90;;;;;;2616699;54;20560;-80
2022/02/04 19:30:46;;;;;;;7.90;5.00;;;4.50;99.90;;;;;;2618063;54;20798;-85
2022/02/04 19:33:15;;;;;;;7.03;5.00;;;4.50;99.90;;;;;;2616881;54;20423;-84
2022/02/04 19:35:42;;;;;;;9.83;4.47;;;4.40;99.90;;;;;;2617459;54;20419;-82
2022/02/04 19:38:08;;;;;;;6.53;5.00;;;4.40;99.90;;;;;;2616208;54;20447;-84